To NAV CANADA Home Page Login to a new session Search on AWWS site Disclaimer Vers la page française équivalente Tips FAQ What's new on the site To the Forecasts and Observations / NOTAM section To "File a Flight Plan" website Publications and other links Update of the User's profile FIC Telephone Numbers My Weather Data Folder Route Weather Data Regional Weather Data Local Weather Data To the Forecasts and Observations / NOTAM section
Request Generated 11/16/2018 at 01:10:35 UTC . Weather information available at that time is displayed.

METAR/TAF

WASKAGANISH/QC    

LWIS CYKQ 160100Z AUTO 18013KT M04/M06 A2991=
LWIS CYKQ 160000Z AUTO 18012KT M03/M06 A2993=
LWIS CYKQ 152300Z AUTO 18012G22KT M04/M06 A2993=

*** REMARK        : Forecast period has ended; this was the last TAF issued
*** REMARQUE : La période de prévision est échue; ceci était le dernier TAF qui a été émis
TAF AMD CYKQ 152145Z 1521/1522 18012G22KT 6SM -SN OVC030 TEMPO
1521/1522 11/2SM -SHSN OVC020
RMK NXT FCST WILL BE ISSUED AT 161545Z=
Your time UTC time
Weather data provided by Environment Canada and NAV CANADA